sensor_id;sensor_type;location;lat;lon;timestamp;P1;durP1;ratioP1;P2;durP2;ratioP2
3379;SDS011;1703;51.964;7.642;2023-03-05T00:01:54;5.87;;;1.93;;
3379;SDS011;1703;51.964;7.642;2023-03-05T00:04:21;19.57;;;2.33;;
3379;SDS011;1703;51.964;7.642;2023-03-05T00:06:47;5.87;;;2.00;;
3379;SDS011;1703;51.964;7.642;2023-03-05T00:09:14;14.80;;;2.43;;
3379;SDS011;1703;51.964;7.642;2023-03-05T00:11:41;15.70;;;2.97;;
3379;SDS011;1703;51.964;7.642;2023-03-05T00:14:08;15.60;;;2.90;;
3379;SDS011;1703;51.964;7.642;2023-03-05T00:16:37;6.73;;;2.07;;
3379;SDS011;1703;51.964;7.642;2023-03-05T00:19:04;7.03;;;1.83;;
3379;SDS011;1703;51.964;7.642;2023-03-05T00:21:32;4.47;;;2.43;;
3379;SDS011;1703;51.964;7.642;2023-03-05T00:24:01;7.27;;;1.90;;
3379;SDS011;1703;51.964;7.642;2023-03-05T00:26:29;4.60;;;1.87;;
3379;SDS011;1703;51.964;7.642;2023-03-05T00:28:58;6.30;;;2.67;;
3379;SDS011;1703;51.964;7.642;2023-03-05T00:31:25;15.43;;;2.70;;
3379;SDS011;1703;51.964;7.642;2023-03-05T00:33:57;6.00;;;1.97;;
3379;SDS011;1703;51.964;7.642;2023-03-05T00:36:26;5.10;;;1.80;;
3379;SDS011;1703;51.964;7.642;2023-03-05T00:38:53;9.40;;;2.13;;
3379;SDS011;1703;51.964;7.642;2023-03-05T00:41:20;9.70;;;3.00;;
3379;SDS011;1703;51.964;7.642;2023-03-05T00:43:47;10.73;;;2.53;;
3379;SDS011;1703;51.964;7.642;2023-03-05T00:46:14;4.80;;;2.10;;
3379;SDS011;1703;51.964;7.642;2023-03-05T00:48:41;6.40;;;2.30;;
3379;SDS011;1703;51.964;7.642;2023-03-05T00:51:09;6.23;;;1.97;;
3379;SDS011;1703;51.964;7.642;2023-03-05T00:53:36;16.93;;;2.83;;
3379;SDS011;1703;51.964;7.642;2023-03-05T00:56:03;8.10;;;2.40;;
3379;SDS011;1703;51.964;7.642;2023-03-05T00:58:31;3.53;;;2.13;;
3379;SDS011;1703;51.964;7.642;2023-03-05T01:00:58;6.83;;;2.27;;
3379;SDS011;1703;51.964;7.642;2023-03-05T01:03:26;7.07;;;1.77;;
3379;SDS011;1703;51.964;7.642;2023-03-05T01:05:53;6.30;;;2.13;;
3379;SDS011;1703;51.964;7.642;2023-03-05T01:08:22;5.17;;;2.73;;
3379;SDS011;1703;51.964;7.642;2023-03-05T01:10:48;3.93;;;1.93;;
3379;SDS011;1703;51.964;7.642;2023-03-05T01:13:21;3.40;;;1.97;;
3379;SDS011;1703;51.964;7.642;2023-03-05T01:15:48;12.87;;;2.70;;
3379;SDS011;1703;51.964;7.642;2023-03-05T01:18:15;7.23;;;1.83;;
3379;SDS011;1703;51.964;7.642;2023-03-05T01:20:43;6.10;;;2.07;;
3379;SDS011;1703;51.964;7.642;2023-03-05T01:23:10;7.30;;;1.97;;
3379;SDS011;1703;51.964;7.642;2023-03-05T01:25:39;7.33;;;2.10;;
3379;SDS011;1703;51.964;7.642;2023-03-05T01:28:07;10.47;;;1.80;;
3379;SDS011;1703;51.964;7.642;2023-03-05T01:30:34;7.33;;;2.03;;
3379;SDS011;1703;51.964;7.642;2023-03-05T01:33:00;5.23;;;2.83;;
3379;SDS011;1703;51.964;7.642;2023-03-05T01:35:27;3.03;;;1.73;;
3379;SDS011;1703;51.964;7.642;2023-03-05T01:37:55;11.93;;;1.90;;
3379;SDS011;1703;51.964;7.642;2023-03-05T01:40:23;5.67;;;2.20;;
3379;SDS011;1703;51.964;7.642;2023-03-05T01:42:57;6.30;;;1.80;;
3379;SDS011;1703;51.964;7.642;2023-03-05T01:45:25;4.40;;;1.60;;
3379;SDS011;1703;51.964;7.642;2023-03-05T01:47:55;14.53;;;2.13;;
3379;SDS011;1703;51.964;7.642;2023-03-05T01:50:22;4.57;;;1.57;;
3379;SDS011;1703;51.964;7.642;2023-03-05T01:52:52;4.20;;;1.90;;
3379;SDS011;1703;51.964;7.642;2023-03-05T01:55:23;6.27;;;1.80;;
3379;SDS011;1703;51.964;7.642;2023-03-05T01:57:52;6.03;;;2.23;;
3379;SDS011;1703;51.964;7.642;2023-03-05T02:00:24;7.27;;;2.00;;
3379;SDS011;1703;51.964;7.642;2023-03-05T02:02:53;6.50;;;2.17;;
3379;SDS011;1703;51.964;7.642;2023-03-05T02:05:23;3.43;;;1.90;;
3379;SDS011;1703;51.964;7.642;2023-03-05T02:07:54;9.17;;;2.43;;
3379;SDS011;1703;51.964;7.642;2023-03-05T02:10:22;4.03;;;2.07;;
3379;SDS011;1703;51.964;7.642;2023-03-05T02:12:52;12.17;;;2.87;;
3379;SDS011;1703;51.964;7.642;2023-03-05T02:15:22;6.13;;;1.80;;
3379;SDS011;1703;51.964;7.642;2023-03-05T02:17:49;8.33;;;1.83;;
3379;SDS011;1703;51.964;7.642;2023-03-05T02:20:18;7.70;;;2.80;;
3379;SDS011;1703;51.964;7.642;2023-03-05T02:22:48;13.80;;;2.40;;
3379;SDS011;1703;51.964;7.642;2023-03-05T02:25:16;6.50;;;2.43;;
3379;SDS011;1703;51.964;7.642;2023-03-05T02:27:45;4.43;;;1.50;;
3379;SDS011;1703;51.964;7.642;2023-03-05T02:30:17;6.63;;;1.77;;
3379;SDS011;1703;51.964;7.642;2023-03-05T02:32:45;7.70;;;2.13;;
3379;SDS011;1703;51.964;7.642;2023-03-05T02:35:12;4.80;;;1.70;;
3379;SDS011;1703;51.964;7.642;2023-03-05T02:37:39;6.07;;;2.20;;
3379;SDS011;1703;51.964;7.642;2023-03-05T02:40:09;11.93;;;2.20;;
3379;SDS011;1703;51.964;7.642;2023-03-05T02:42:40;6.90;;;1.93;;
3379;SDS011;1703;51.964;7.642;2023-03-05T02:45:09;11.23;;;2.23;;
3379;SDS011;1703;51.964;7.642;2023-03-05T02:47:37;8.03;;;2.10;;
3379;SDS011;1703;51.964;7.642;2023-03-05T02:50:06;4.77;;;1.83;;
3379;SDS011;1703;51.964;7.642;2023-03-05T02:52:35;6.57;;;2.03;;
3379;SDS011;1703;51.964;7.642;2023-03-05T02:55:05;4.00;;;1.90;;
3379;SDS011;1703;51.964;7.642;2023-03-05T02:57:34;5.37;;;1.93;;
3379;SDS011;1703;51.964;7.642;2023-03-05T03:00:01;3.63;;;1.57;;
3379;SDS011;1703;51.964;7.642;2023-03-05T03:02:28;4.27;;;1.90;;
3379;SDS011;1703;51.964;7.642;2023-03-05T03:04:55;3.30;;;1.80;;
3379;SDS011;1703;51.964;7.642;2023-03-05T03:07:22;7.73;;;2.10;;
3379;SDS011;1703;51.964;7.642;2023-03-05T03:09:49;6.80;;;2.10;;
3379;SDS011;1703;51.964;7.642;2023-03-05T03:12:16;9.23;;;2.40;;
3379;SDS011;1703;51.964;7.642;2023-03-05T03:14:44;9.20;;;2.20;;
3379;SDS011;1703;51.964;7.642;2023-03-05T03:17:12;8.17;;;1.73;;
3379;SDS011;1703;51.964;7.642;2023-03-05T03:19:41;8.70;;;2.60;;
3379;SDS011;1703;51.964;7.642;2023-03-05T03:22:09;2.70;;;2.50;;
3379;SDS011;1703;51.964;7.642;2023-03-05T03:24:36;5.47;;;1.93;;
3379;SDS011;1703;51.964;7.642;2023-03-05T03:27:04;5.20;;;1.77;;
3379;SDS011;1703;51.964;7.642;2023-03-05T03:29:32;2.97;;;1.30;;
3379;SDS011;1703;51.964;7.642;2023-03-05T03:32:00;10.23;;;1.67;;
3379;SDS011;1703;51.964;7.642;2023-03-05T03:34:27;10.47;;;2.27;;
3379;SDS011;1703;51.964;7.642;2023-03-05T03:36:54;6.63;;;1.23;;
3379;SDS011;1703;51.964;7.642;2023-03-05T03:39:20;4.20;;;2.40;;
3379;SDS011;1703;51.964;7.642;2023-03-05T03:41:50;5.73;;;1.50;;
3379;SDS011;1703;51.964;7.642;2023-03-05T03:44:18;3.53;;;1.90;;
3379;SDS011;1703;51.964;7.642;2023-03-05T03:46:46;12.67;;;2.23;;
3379;SDS011;1703;51.964;7.642;2023-03-05T03:49:16;5.67;;;2.20;;
3379;SDS011;1703;51.964;7.642;2023-03-05T03:51:45;4.37;;;2.43;;
3379;SDS011;1703;51.964;7.642;2023-03-05T03:54:12;4.20;;;1.50;;
3379;SDS011;1703;51.964;7.642;2023-03-05T03:56:39;5.03;;;1.80;;
3379;SDS011;1703;51.964;7.642;2023-03-05T03:59:07;3.97;;;2.10;;
3379;SDS011;1703;51.964;7.642;2023-03-05T04:01:34;6.50;;;2.73;;
3379;SDS011;1703;51.964;7.642;2023-03-05T04:04:01;11.73;;;2.37;;
3379;SDS011;1703;51.964;7.642;2023-03-05T04:06:30;20.00;;;3.60;;
3379;SDS011;1703;51.964;7.642;2023-03-05T04:08:57;6.87;;;1.53;;
3379;SDS011;1703;51.964;7.642;2023-03-05T04:11:24;6.37;;;2.37;;
3379;SDS011;1703;51.964;7.642;2023-03-05T04:13:51;7.00;;;2.23;;
3379;SDS011;1703;51.964;7.642;2023-03-05T04:16:19;6.23;;;2.17;;
3379;SDS011;1703;51.964;7.642;2023-03-05T04:18:46;5.33;;;2.10;;
3379;SDS011;1703;51.964;7.642;2023-03-05T04:21:13;4.30;;;2.10;;
3379;SDS011;1703;51.964;7.642;2023-03-05T04:23:41;6.20;;;2.27;;
3379;SDS011;1703;51.964;7.642;2023-03-05T04:26:08;5.27;;;2.07;;
3379;SDS011;1703;51.964;7.642;2023-03-05T04:28:35;7.70;;;2.43;;
3379;SDS011;1703;51.964;7.642;2023-03-05T04:31:02;9.53;;;2.30;;
3379;SDS011;1703;51.964;7.642;2023-03-05T04:33:29;3.30;;;2.03;;
3379;SDS011;1703;51.964;7.642;2023-03-05T04:35:56;10.63;;;3.00;;
3379;SDS011;1703;51.964;7.642;2023-03-05T04:38:23;6.63;;;2.53;;
3379;SDS011;1703;51.964;7.642;2023-03-05T04:40:51;11.33;;;2.80;;
3379;SDS011;1703;51.964;7.642;2023-03-05T04:43:18;12.13;;;2.53;;
3379;SDS011;1703;51.964;7.642;2023-03-05T04:45:45;3.43;;;2.03;;
3379;SDS011;1703;51.964;7.642;2023-03-05T04:48:12;10.83;;;2.97;;
3379;SDS011;1703;51.964;7.642;2023-03-05T04:50:39;3.63;;;2.00;;
3379;SDS011;1703;51.964;7.642;2023-03-05T04:53:06;4.00;;;2.50;;
3379;SDS011;1703;51.964;7.642;2023-03-05T04:55:33;17.03;;;2.93;;
3379;SDS011;1703;51.964;7.642;2023-03-05T04:58:01;9.13;;;2.90;;
3379;SDS011;1703;51.964;7.642;2023-03-05T05:00:28;2.07;;;1.50;;
3379;SDS011;1703;51.964;7.642;2023-03-05T05:02:55;7.77;;;1.63;;
3379;SDS011;1703;51.964;7.642;2023-03-05T05:05:22;6.10;;;2.07;;
3379;SDS011;1703;51.964;7.642;2023-03-05T05:07:52;5.03;;;1.93;;
3379;SDS011;1703;51.964;7.642;2023-03-05T05:10:20;11.50;;;1.97;;
3379;SDS011;1703;51.964;7.642;2023-03-05T05:12:47;5.80;;;2.00;;
3379;SDS011;1703;51.964;7.642;2023-03-05T05:15:15;6.13;;;2.50;;
3379;SDS011;1703;51.964;7.642;2023-03-05T05:17:42;4.10;;;1.80;;
3379;SDS011;1703;51.964;7.642;2023-03-05T05:20:10;7.27;;;2.33;;
3379;SDS011;1703;51.964;7.642;2023-03-05T05:22:38;4.33;;;1.93;;
3379;SDS011;1703;51.964;7.642;2023-03-05T05:25:05;3.03;;;2.03;;
3379;SDS011;1703;51.964;7.642;2023-03-05T05:27:33;6.00;;;2.07;;
3379;SDS011;1703;51.964;7.642;2023-03-05T05:30:00;2.63;;;1.50;;
3379;SDS011;1703;51.964;7.642;2023-03-05T05:32:29;6.23;;;1.60;;
3379;SDS011;1703;51.964;7.642;2023-03-05T05:34:57;8.33;;;1.93;;
3379;SDS011;1703;51.964;7.642;2023-03-05T05:37:24;2.60;;;1.90;;
3379;SDS011;1703;51.964;7.642;2023-03-05T05:39:52;2.00;;;1.40;;
3379;SDS011;1703;51.964;7.642;2023-03-05T05:42:20;4.80;;;1.20;;
3379;SDS011;1703;51.964;7.642;2023-03-05T05:44:48;3.43;;;1.77;;
3379;SDS011;1703;51.964;7.642;2023-03-05T05:47:15;13.73;;;2.13;;
3379;SDS011;1703;51.964;7.642;2023-03-05T05:49:44;9.83;;;1.93;;
3379;SDS011;1703;51.964;7.642;2023-03-05T05:52:11;1.70;;;1.07;;
3379;SDS011;1703;51.964;7.642;2023-03-05T05:54:38;12.13;;;1.80;;
3379;SDS011;1703;51.964;7.642;2023-03-05T05:57:05;4.80;;;1.50;;
3379;SDS011;1703;51.964;7.642;2023-03-05T05:59:32;9.30;;;1.67;;
3379;SDS011;1703;51.964;7.642;2023-03-05T06:01:59;7.43;;;1.87;;
3379;SDS011;1703;51.964;7.642;2023-03-05T06:04:26;8.07;;;2.93;;
3379;SDS011;1703;51.964;7.642;2023-03-05T06:06:54;5.93;;;1.93;;
3379;SDS011;1703;51.964;7.642;2023-03-05T06:09:21;5.33;;;2.10;;
3379;SDS011;1703;51.964;7.642;2023-03-05T06:11:48;9.33;;;2.07;;
3379;SDS011;1703;51.964;7.642;2023-03-05T06:14:15;5.03;;;2.00;;
3379;SDS011;1703;51.964;7.642;2023-03-05T06:16:42;3.63;;;1.60;;
3379;SDS011;1703;51.964;7.642;2023-03-05T06:19:09;9.60;;;2.77;;
3379;SDS011;1703;51.964;7.642;2023-03-05T06:21:37;9.03;;;2.50;;
3379;SDS011;1703;51.964;7.642;2023-03-05T06:24:06;2.27;;;1.90;;
3379;SDS011;1703;51.964;7.642;2023-03-05T06:26:33;5.53;;;1.80;;
3379;SDS011;1703;51.964;7.642;2023-03-05T06:29:00;8.10;;;1.47;;
3379;SDS011;1703;51.964;7.642;2023-03-05T06:31:27;3.00;;;1.60;;
3379;SDS011;1703;51.964;7.642;2023-03-05T06:33:55;7.37;;;2.33;;
3379;SDS011;1703;51.964;7.642;2023-03-05T06:36:26;4.93;;;1.70;;
3379;SDS011;1703;51.964;7.642;2023-03-05T06:38:53;6.13;;;1.97;;
3379;SDS011;1703;51.964;7.642;2023-03-05T06:41:23;7.03;;;2.03;;
3379;SDS011;1703;51.964;7.642;2023-03-05T06:43:52;5.53;;;1.83;;
3379;SDS011;1703;51.964;7.642;2023-03-05T06:46:20;8.07;;;2.40;;
3379;SDS011;1703;51.964;7.642;2023-03-05T06:48:51;4.20;;;2.00;;
3379;SDS011;1703;51.964;7.642;2023-03-05T06:51:20;9.50;;;2.47;;
3379;SDS011;1703;51.964;7.642;2023-03-05T06:53:48;4.20;;;2.33;;
3379;SDS011;1703;51.964;7.642;2023-03-05T06:56:16;5.97;;;2.50;;
3379;SDS011;1703;51.964;7.642;2023-03-05T06:58:46;9.33;;;2.40;;
3379;SDS011;1703;51.964;7.642;2023-03-05T07:01:14;8.70;;;2.80;;
3379;SDS011;1703;51.964;7.642;2023-03-05T07:03:42;8.00;;;2.70;;
3379;SDS011;1703;51.964;7.642;2023-03-05T07:06:10;4.17;;;1.73;;
3379;SDS011;1703;51.964;7.642;2023-03-05T07:08:39;4.90;;;2.17;;
3379;SDS011;1703;51.964;7.642;2023-03-05T07:11:09;4.50;;;1.93;;
3379;SDS011;1703;51.964;7.642;2023-03-05T07:13:36;7.33;;;1.93;;
3379;SDS011;1703;51.964;7.642;2023-03-05T07:16:05;7.23;;;2.40;;
3379;SDS011;1703;51.964;7.642;2023-03-05T07:18:32;4.33;;;2.33;;
3379;SDS011;1703;51.964;7.642;2023-03-05T07:21:00;4.23;;;1.93;;
3379;SDS011;1703;51.964;7.642;2023-03-05T07:23:28;8.83;;;2.10;;
3379;SDS011;1703;51.964;7.642;2023-03-05T07:25:55;5.57;;;2.30;;
3379;SDS011;1703;51.964;7.642;2023-03-05T07:28:29;7.93;;;1.83;;
3379;SDS011;1703;51.964;7.642;2023-03-05T07:30:57;4.07;;;2.13;;
3379;SDS011;1703;51.964;7.642;2023-03-05T07:33:34;4.73;;;1.97;;
3379;SDS011;1703;51.964;7.642;2023-03-05T07:36:01;3.83;;;2.07;;
3379;SDS011;1703;51.964;7.642;2023-03-05T07:38:29;5.37;;;2.03;;
3379;SDS011;1703;51.964;7.642;2023-03-05T07:40:56;3.23;;;1.50;;
3379;SDS011;1703;51.964;7.642;2023-03-05T07:43:26;7.70;;;2.47;;
3379;SDS011;1703;51.964;7.642;2023-03-05T07:45:53;4.10;;;2.50;;
3379;SDS011;1703;51.964;7.642;2023-03-05T07:48:20;4.30;;;2.00;;
3379;SDS011;1703;51.964;7.642;2023-03-05T07:50:49;4.10;;;2.00;;
3379;SDS011;1703;51.964;7.642;2023-03-05T07:53:16;7.50;;;1.83;;
3379;SDS011;1703;51.964;7.642;2023-03-05T07:55:43;5.97;;;1.57;;
3379;SDS011;1703;51.964;7.642;2023-03-05T07:58:10;3.43;;;1.77;;
3379;SDS011;1703;51.964;7.642;2023-03-05T08:00:38;2.97;;;1.57;;
3379;SDS011;1703;51.964;7.642;2023-03-05T08:03:06;7.57;;;1.90;;
3379;SDS011;1703;51.964;7.642;2023-03-05T08:05:32;5.97;;;1.57;;
3379;SDS011;1703;51.964;7.642;2023-03-05T08:08:01;3.60;;;1.83;;
3379;SDS011;1703;51.964;7.642;2023-03-05T08:10:28;3.27;;;1.43;;
3379;SDS011;1703;51.964;7.642;2023-03-05T08:12:55;5.80;;;1.37;;
3379;SDS011;1703;51.964;7.642;2023-03-05T08:15:22;3.10;;;1.23;;
3379;SDS011;1703;51.964;7.642;2023-03-05T08:17:48;2.57;;;1.37;;
3379;SDS011;1703;51.964;7.642;2023-03-05T08:20:15;1.40;;;1.30;;
3379;SDS011;1703;51.964;7.642;2023-03-05T08:22:43;2.60;;;1.87;;
3379;SDS011;1703;51.964;7.642;2023-03-05T08:25:12;1.93;;;1.57;;
3379;SDS011;1703;51.964;7.642;2023-03-05T08:27:39;2.43;;;1.67;;
3379;SDS011;1703;51.964;7.642;2023-03-05T08:30:07;4.97;;;1.47;;
3379;SDS011;1703;51.964;7.642;2023-03-05T08:32:36;1.20;;;1.10;;
3379;SDS011;1703;51.964;7.642;2023-03-05T08:35:03;3.23;;;1.17;;
3379;SDS011;1703;51.964;7.642;2023-03-05T08:37:30;2.33;;;1.30;;
3379;SDS011;1703;51.964;7.642;2023-03-05T08:39:58;3.30;;;1.90;;
3379;SDS011;1703;51.964;7.642;2023-03-05T08:42:26;5.30;;;2.03;;
3379;SDS011;1703;51.964;7.642;2023-03-05T08:44:53;5.80;;;1.60;;
3379;SDS011;1703;51.964;7.642;2023-03-05T08:47:20;3.40;;;2.03;;
3379;SDS011;1703;51.964;7.642;2023-03-05T08:49:49;3.00;;;1.67;;
3379;SDS011;1703;51.964;7.642;2023-03-05T08:52:19;3.80;;;1.63;;
3379;SDS011;1703;51.964;7.642;2023-03-05T08:54:46;3.17;;;1.93;;
3379;SDS011;1703;51.964;7.642;2023-03-05T08:57:13;3.57;;;1.40;;
3379;SDS011;1703;51.964;7.642;2023-03-05T08:59:41;2.80;;;1.97;;
3379;SDS011;1703;51.964;7.642;2023-03-05T09:02:08;1.77;;;1.67;;
3379;SDS011;1703;51.964;7.642;2023-03-05T09:04:37;3.33;;;1.97;;
3379;SDS011;1703;51.964;7.642;2023-03-05T09:07:04;4.30;;;2.10;;
3379;SDS011;1703;51.964;7.642;2023-03-05T09:09:31;5.67;;;2.30;;
3379;SDS011;1703;51.964;7.642;2023-03-05T09:11:58;5.07;;;1.77;;
3379;SDS011;1703;51.964;7.642;2023-03-05T09:14:25;3.17;;;1.90;;
3379;SDS011;1703;51.964;7.642;2023-03-05T09:16:54;5.87;;;2.20;;
3379;SDS011;1703;51.964;7.642;2023-03-05T09:19:20;7.87;;;2.23;;
3379;SDS011;1703;51.964;7.642;2023-03-05T09:21:47;8.23;;;1.83;;
3379;SDS011;1703;51.964;7.642;2023-03-05T09:24:14;5.73;;;1.93;;
3379;SDS011;1703;51.964;7.642;2023-03-05T09:26:41;4.60;;;1.50;;
3379;SDS011;1703;51.964;7.642;2023-03-05T09:29:08;2.43;;;1.93;;
3379;SDS011;1703;51.964;7.642;2023-03-05T09:31:36;10.83;;;2.10;;
3379;SDS011;1703;51.964;7.642;2023-03-05T09:34:05;1.50;;;1.30;;
3379;SDS011;1703;51.964;7.642;2023-03-05T09:36:33;2.80;;;1.63;;
3379;SDS011;1703;51.964;7.642;2023-03-05T09:39:00;3.13;;;1.90;;
3379;SDS011;1703;51.964;7.642;2023-03-05T09:41:31;5.73;;;2.00;;
3379;SDS011;1703;51.964;7.642;2023-03-05T09:44:19;6.17;;;2.03;;
3379;SDS011;1703;51.964;7.642;2023-03-05T09:46:53;4.37;;;1.80;;
3379;SDS011;1703;51.964;7.642;2023-03-05T09:49:31;6.53;;;1.87;;
3379;SDS011;1703;51.964;7.642;2023-03-05T09:52:06;3.03;;;1.60;;
3379;SDS011;1703;51.964;7.642;2023-03-05T09:54:41;5.23;;;2.07;;
3379;SDS011;1703;51.964;7.642;2023-03-05T09:57:13;6.23;;;1.80;;
3379;SDS011;1703;51.964;7.642;2023-03-05T09:59:45;7.07;;;1.83;;
3379;SDS011;1703;51.964;7.642;2023-03-05T10:02:16;1.77;;;1.67;;
3379;SDS011;1703;51.964;7.642;2023-03-05T10:04:48;5.13;;;1.73;;
3379;SDS011;1703;51.964;7.642;2023-03-05T10:07:21;5.13;;;2.20;;
3379;SDS011;1703;51.964;7.642;2023-03-05T10:09:53;5.37;;;1.60;;
3379;SDS011;1703;51.964;7.642;2023-03-05T10:12:24;3.00;;;1.47;;
3379;SDS011;1703;51.964;7.642;2023-03-05T10:14:59;3.57;;;1.50;;
3379;SDS011;1703;51.964;7.642;2023-03-05T10:17:34;4.80;;;1.93;;
3379;SDS011;1703;51.964;7.642;2023-03-05T10:20:17;3.63;;;1.30;;
3379;SDS011;1703;51.964;7.642;2023-03-05T10:23:24;2.40;;;1.10;;
3379;SDS011;1703;51.964;7.642;2023-03-05T10:26:00;7.93;;;1.53;;
3379;SDS011;1703;51.964;7.642;2023-03-05T10:28:36;12.47;;;2.10;;
3379;SDS011;1703;51.964;7.642;2023-03-05T10:37:08;3.97;;;1.17;;
3379;SDS011;1703;51.964;7.642;2023-03-05T10:39:50;3.50;;;1.70;;
3379;SDS011;1703;51.964;7.642;2023-03-05T10:42:36;2.37;;;1.00;;
3379;SDS011;1703;51.964;7.642;2023-03-05T10:45:14;1.10;;;0.70;;
3379;SDS011;1703;51.964;7.642;2023-03-05T10:47:44;1.43;;;1.13;;
3379;SDS011;1703;51.964;7.642;2023-03-05T10:50:16;1.70;;;1.20;;
3379;SDS011;1703;51.964;7.642;2023-03-05T10:52:45;2.40;;;0.60;;
3379;SDS011;1703;51.964;7.642;2023-03-05T10:55:18;1.60;;;0.63;;
3379;SDS011;1703;51.964;7.642;2023-03-05T10:57:48;4.53;;;1.10;;
3379;SDS011;1703;51.964;7.642;2023-03-05T11:00:16;1.23;;;0.80;;
3379;SDS011;1703;51.964;7.642;2023-03-05T11:02:52;4.20;;;0.83;;
3379;SDS011;1703;51.964;7.642;2023-03-05T11:05:40;2.57;;;0.83;;
3379;SDS011;1703;51.964;7.642;2023-03-05T11:08:23;5.80;;;1.00;;
3379;SDS011;1703;51.964;7.642;2023-03-05T11:11:09;1.80;;;0.90;;
3379;SDS011;1703;51.964;7.642;2023-03-05T11:13:40;2.77;;;1.03;;
3379;SDS011;1703;51.964;7.642;2023-03-05T11:16:16;0.80;;;0.73;;
3379;SDS011;1703;51.964;7.642;2023-03-05T11:18:44;1.10;;;0.90;;
3379;SDS011;1703;51.964;7.642;2023-03-05T11:21:17;0.93;;;0.83;;
3379;SDS011;1703;51.964;7.642;2023-03-05T11:24:05;2.50;;;1.07;;
3379;SDS011;1703;51.964;7.642;2023-03-05T11:26:37;6.67;;;2.00;;
3379;SDS011;1703;51.964;7.642;2023-03-05T11:29:15;1.50;;;1.40;;
3379;SDS011;1703;51.964;7.642;2023-03-05T11:31:45;4.37;;;1.50;;
3379;SDS011;1703;51.964;7.642;2023-03-05T11:34:21;1.50;;;1.30;;
3379;SDS011;1703;51.964;7.642;2023-03-05T11:37:01;2.23;;;1.50;;
3379;SDS011;1703;51.964;7.642;2023-03-05T11:39:32;2.10;;;1.20;;
3379;SDS011;1703;51.964;7.642;2023-03-05T11:42:02;16.03;;;1.53;;
3379;SDS011;1703;51.964;7.642;2023-03-05T11:44:32;2.43;;;0.70;;
3379;SDS011;1703;51.964;7.642;2023-03-05T11:47:08;5.70;;;0.80;;
3379;SDS011;1703;51.964;7.642;2023-03-05T11:49:42;0.87;;;0.80;;
3379;SDS011;1703;51.964;7.642;2023-03-05T11:52:12;7.37;;;0.90;;
3379;SDS011;1703;51.964;7.642;2023-03-05T11:54:47;2.60;;;1.00;;
3379;SDS011;1703;51.964;7.642;2023-03-05T11:57:21;6.10;;;1.20;;
3379;SDS011;1703;51.964;7.642;2023-03-05T11:59:49;5.00;;;0.90;;
3379;SDS011;1703;51.964;7.642;2023-03-05T12:02:18;1.10;;;0.90;;
3379;SDS011;1703;51.964;7.642;2023-03-05T12:04:48;2.50;;;0.93;;
3379;SDS011;1703;51.964;7.642;2023-03-05T12:07:16;1.13;;;0.90;;
3379;SDS011;1703;51.964;7.642;2023-03-05T12:09:49;1.00;;;0.77;;
3379;SDS011;1703;51.964;7.642;2023-03-05T12:12:21;3.33;;;1.20;;
3379;SDS011;1703;51.964;7.642;2023-03-05T12:15:01;2.70;;;1.10;;
3379;SDS011;1703;51.964;7.642;2023-03-05T12:17:53;2.03;;;0.97;;
3379;SDS011;1703;51.964;7.642;2023-03-05T12:20:32;2.03;;;1.30;;
3379;SDS011;1703;51.964;7.642;2023-03-05T12:23:09;2.40;;;1.10;;
3379;SDS011;1703;51.964;7.642;2023-03-05T12:25:45;1.50;;;0.93;;
3379;SDS011;1703;51.964;7.642;2023-03-05T12:28:15;3.13;;;0.97;;
3379;SDS011;1703;51.964;7.642;2023-03-05T12:30:53;2.80;;;1.00;;
3379;SDS011;1703;51.964;7.642;2023-03-05T12:33:30;1.00;;;0.90;;
3379;SDS011;1703;51.964;7.642;2023-03-05T12:38:57;2.93;;;1.07;;
3379;SDS011;1703;51.964;7.642;2023-03-05T12:47:14;1.23;;;0.70;;
3379;SDS011;1703;51.964;7.642;2023-03-05T12:49:44;1.77;;;1.40;;
3379;SDS011;1703;51.964;7.642;2023-03-05T12:52:15;1.10;;;0.70;;
3379;SDS011;1703;51.964;7.642;2023-03-05T12:55:06;0.83;;;0.63;;
3379;SDS011;1703;51.964;7.642;2023-03-05T12:57:44;1.90;;;0.83;;
3379;SDS011;1703;51.964;7.642;2023-03-05T13:00:13;2.90;;;0.70;;
3379;SDS011;1703;51.964;7.642;2023-03-05T13:02:45;9.07;;;0.90;;
3379;SDS011;1703;51.964;7.642;2023-03-05T13:05:17;3.63;;;0.93;;
3379;SDS011;1703;51.964;7.642;2023-03-05T13:07:48;1.00;;;0.73;;
3379;SDS011;1703;51.964;7.642;2023-03-05T13:10:20;2.90;;;0.90;;
3379;SDS011;1703;51.964;7.642;2023-03-05T13:12:50;2.00;;;0.70;;
3379;SDS011;1703;51.964;7.642;2023-03-05T13:15:20;1.67;;;1.00;;
3379;SDS011;1703;51.964;7.642;2023-03-05T13:17:53;0.80;;;0.60;;
3379;SDS011;1703;51.964;7.642;2023-03-05T13:20:32;1.30;;;0.70;;
3379;SDS011;1703;51.964;7.642;2023-03-05T13:25:55;4.60;;;1.27;;
3379;SDS011;1703;51.964;7.642;2023-03-05T13:28:28;2.73;;;0.80;;
3379;SDS011;1703;51.964;7.642;2023-03-05T13:30:56;1.10;;;0.60;;
3379;SDS011;1703;51.964;7.642;2023-03-05T13:33:25;1.10;;;0.90;;
3379;SDS011;1703;51.964;7.642;2023-03-05T13:35:53;3.57;;;0.93;;
3379;SDS011;1703;51.964;7.642;2023-03-05T13:38:25;2.53;;;0.80;;
3379;SDS011;1703;51.964;7.642;2023-03-05T13:41:01;0.90;;;0.70;;
3379;SDS011;1703;51.964;7.642;2023-03-05T13:43:47;0.80;;;0.60;;
3379;SDS011;1703;51.964;7.642;2023-03-05T13:46:22;1.17;;;0.63;;
3379;SDS011;1703;51.964;7.642;2023-03-05T13:48:50;2.30;;;0.73;;
3379;SDS011;1703;51.964;7.642;2023-03-05T13:51:17;0.60;;;0.50;;
3379;SDS011;1703;51.964;7.642;2023-03-05T13:53:43;4.10;;;1.00;;
3379;SDS011;1703;51.964;7.642;2023-03-05T13:56:12;1.80;;;0.60;;
3379;SDS011;1703;51.964;7.642;2023-03-05T13:58:41;2.27;;;0.83;;
3379;SDS011;1703;51.964;7.642;2023-03-05T14:01:13;1.17;;;0.90;;
3379;SDS011;1703;51.964;7.642;2023-03-05T14:03:47;0.97;;;0.73;;
3379;SDS011;1703;51.964;7.642;2023-03-05T14:06:16;2.03;;;0.70;;
3379;SDS011;1703;51.964;7.642;2023-03-05T14:08:47;1.07;;;0.50;;
3379;SDS011;1703;51.964;7.642;2023-03-05T14:11:16;1.03;;;0.60;;
3379;SDS011;1703;51.964;7.642;2023-03-05T14:13:44;1.63;;;0.70;;
3379;SDS011;1703;51.964;7.642;2023-03-05T14:16:14;1.60;;;0.77;;
3379;SDS011;1703;51.964;7.642;2023-03-05T14:18:51;3.83;;;0.63;;
3379;SDS011;1703;51.964;7.642;2023-03-05T14:21:18;1.90;;;0.70;;
3379;SDS011;1703;51.964;7.642;2023-03-05T14:23:49;2.53;;;0.83;;
3379;SDS011;1703;51.964;7.642;2023-03-05T14:26:23;0.70;;;0.60;;
3379;SDS011;1703;51.964;7.642;2023-03-05T14:28:54;0.60;;;0.50;;
3379;SDS011;1703;51.964;7.642;2023-03-05T14:31:23;2.13;;;0.60;;
3379;SDS011;1703;51.964;7.642;2023-03-05T14:33:51;7.13;;;0.80;;
3379;SDS011;1703;51.964;7.642;2023-03-05T14:36:20;0.60;;;0.60;;
3379;SDS011;1703;51.964;7.642;2023-03-05T14:38:49;0.80;;;0.70;;
3379;SDS011;1703;51.964;7.642;2023-03-05T14:41:28;1.40;;;0.90;;
3379;SDS011;1703;51.964;7.642;2023-03-05T14:43:59;1.00;;;0.70;;
3379;SDS011;1703;51.964;7.642;2023-03-05T14:46:28;0.70;;;0.60;;
3379;SDS011;1703;51.964;7.642;2023-03-05T14:48:55;2.07;;;1.00;;
3379;SDS011;1703;51.964;7.642;2023-03-05T14:51:21;0.80;;;0.70;;
3379;SDS011;1703;51.964;7.642;2023-03-05T14:53:50;0.90;;;0.60;;
3379;SDS011;1703;51.964;7.642;2023-03-05T14:56:17;1.00;;;0.83;;
3379;SDS011;1703;51.964;7.642;2023-03-05T14:58:48;4.40;;;1.13;;
3379;SDS011;1703;51.964;7.642;2023-03-05T15:01:15;2.33;;;0.80;;
3379;SDS011;1703;51.964;7.642;2023-03-05T15:03:43;1.73;;;1.00;;
3379;SDS011;1703;51.964;7.642;2023-03-05T15:06:15;3.60;;;0.80;;
3379;SDS011;1703;51.964;7.642;2023-03-05T15:08:44;2.67;;;0.93;;
3379;SDS011;1703;51.964;7.642;2023-03-05T15:11:11;3.10;;;1.10;;
3379;SDS011;1703;51.964;7.642;2023-03-05T15:13:38;1.53;;;1.00;;
3379;SDS011;1703;51.964;7.642;2023-03-05T15:16:05;2.20;;;0.80;;
3379;SDS011;1703;51.964;7.642;2023-03-05T15:18:33;2.80;;;0.80;;
3379;SDS011;1703;51.964;7.642;2023-03-05T15:21:01;2.17;;;0.90;;
3379;SDS011;1703;51.964;7.642;2023-03-05T15:23:28;2.03;;;1.30;;
3379;SDS011;1703;51.964;7.642;2023-03-05T15:26:00;0.73;;;0.60;;
3379;SDS011;1703;51.964;7.642;2023-03-05T15:28:30;1.83;;;0.83;;
3379;SDS011;1703;51.964;7.642;2023-03-05T15:30:58;2.30;;;0.80;;
3379;SDS011;1703;51.964;7.642;2023-03-05T15:33:26;1.23;;;1.03;;
3379;SDS011;1703;51.964;7.642;2023-03-05T15:35:53;1.17;;;0.70;;
3379;SDS011;1703;51.964;7.642;2023-03-05T15:38:22;3.30;;;1.67;;
3379;SDS011;1703;51.964;7.642;2023-03-05T15:40:49;2.13;;;1.30;;
3379;SDS011;1703;51.964;7.642;2023-03-05T15:43:17;1.73;;;1.30;;
3379;SDS011;1703;51.964;7.642;2023-03-05T15:45:44;1.30;;;1.20;;
3379;SDS011;1703;51.964;7.642;2023-03-05T15:48:11;4.23;;;2.03;;